• Join FlightAware (Why Join?)
  • Login
  • US Flag 
04:51AM EDT


 

Airport Tracker/Info


-or-


 

Live Flight TrackerFlight Track Log ✈ DAL3793 ✈ 08-Oct-2013 ✈ KTVC - KDTW

Flight Track Log - Related Links

Times and Time Zones

All times are in EDT time to prevent confusion due to time zone crossing. See the DAL3793 flight status page for this flight to view local times or setup timezone preferences in your user account.

Time Position Orientation Groundspeed Altitude Reporting Facility
EDT Latitude Longitude Course Direction KTS MPH feet Rate Location/Type
12:09PM 44.7447 -85.6350 276° West 150 173 2,500  Level Minneapolis Center
12:10PM 44.7503 -85.7117 276° West 188 216 4,800 2,340 Climbing Minneapolis Center
12:11PM 44.7117 -85.7731 229° Southwest 233 268 7,400 2,400 Climbing Minneapolis Center
12:12PM 44.6525 -85.7017 139° Southeast 279 321 9,800 1,980 Climbing Minneapolis Center
12:13PM 44.5939 -85.6136 133° Southeast 300 345 11,500 1,440 Climbing Minneapolis Center
12:14PM 44.5286 -85.5161 133° Southeast 326 375 12,800 1,200 Climbing Minneapolis Center
12:15PM 44.4558 -85.4078 133° Southeast 366 421 14,100 1,560 Climbing Minneapolis Center
12:16PM 44.3675 -85.2792 134° Southeast 379 436 16,000 1,680 Climbing Minneapolis Center
12:17PM 44.2931 -85.1714 134° Southeast 385 443 17,600 1,500 Climbing Minneapolis Center
12:18PM 44.2189 -85.0619 133° Southeast 387 445 19,100 1,200 Climbing Minneapolis Center
12:19PM 44.1436 -84.9517 134° Southeast 389 448 20,100 900 Climbing Minneapolis Center
12:20PM 44.0653 -84.8392 134° Southeast 400 460 21,000 420 Climbing Minneapolis Center
12:21PM 43.9811 -84.7175 134° Southeast 420 483 21,000  Level Minneapolis Center
12:22PM 43.8936 -84.5928 134° Southeast 441 507 21,000  Level Minneapolis Center
12:23PM 43.8067 -84.4656 133° Southeast 450 518 21,000  Level Minneapolis Center
12:24PM 43.7003 -84.3144 134° Southeast 455 524 21,000  Level Minneapolis Center
12:25PM 43.6111 -84.1892 134° Southeast 455 524 21,000  Level Minneapolis Center
12:26PM 43.5011 -84.1158 154° Southeast 448 516 21,000  Level Minneapolis Center
12:27PM 43.3908 -84.0508 157° South 435 501 21,000 -60 Level Minneapolis Center
12:28PM 43.2792 -83.9872 157° South 434 499 20,900 -1,260 Descending Minneapolis Center
12:29PM 43.1672 -83.9225 157° South 435 501 18,400 -2,460 Descending Minneapolis Center
12:30PM 43.0397 -83.8497 157° South 427 491 15,900 -2,460 Descending Cleveland Center
12:31PM 43.0033 -83.8294 158° South 411 473 15,100 -2,340 Descending Cleveland Center
12:31PM 42.9361 -83.7914 157° South 409 471 13,500 -2,220 Descending Cleveland Center
12:32PM 42.8750 -83.7589 159° South 364 419 12,200 -1,380 Descending Cleveland Center
12:32PM 42.8428 -83.7381 155° Southeast 374 430 12,100 -420 Descending Cleveland Center
12:33PM 42.7869 -83.7089 159° South 305 351 11,800 -780 Descending Cleveland Center
12:33PM 42.7650 -83.6925 151° Southeast 315 362 11,300 -1,500 Descending Cleveland Center
12:34PM 42.7069 -83.6600 158° South 309 356 10,300 -1,380 Descending Cleveland Center
12:34PM 42.6875 -83.6458 152° Southeast 306 352 9,900 -1,380 Descending Cleveland Center
12:35PM 42.6589 -83.5792 120° Southeast 288 331 8,900 -1,440 Descending Cleveland Center
12:35PM 42.6536 -83.5486 103° East 300 345 8,400 -900 Descending Cleveland Center
12:36PM 42.6414 -83.4828 104° East 280 322 8,100 -420 Descending Cleveland Center
12:36PM 42.6314 -83.4256 103° East 281 323 8,000 -120 Descending Cleveland Center
12:37PM 42.6233 -83.3894 107° East 231 266 8,000  Level Cleveland Center
12:38PM 42.6114 -83.3433 109° East 232 267 8,000 60 Level Cleveland Center
12:38PM 42.6058 -83.3189 107° East 216 249 8,100 -600 Climbing Cleveland Center
12:39PM 42.5914 -83.2656 110° East 218 251 7,400 -1,020 Descending Cleveland Center
12:39PM 42.5842 -83.2450 116° Southeast 225 259 7,200 -300 Descending Cleveland Center
12:40PM 42.5494 -83.2086 142° Southeast 218 251 7,100 -120 Descending Cleveland Center
12:40PM 42.5300 -83.1892 144° Southeast 216 249 7,100 -240 Level Cleveland Center
12:41PM 42.4972 -83.1731 160° South 220 253 6,900 -720 Descending Cleveland Center
12:41PM 42.4719 -83.1811 193° South 215 247 6,400 -1,200 Descending Cleveland Center
12:42PM 42.4403 -83.1911 193° South 215 247 5,700 -1,500 Descending Cleveland Center
12:42PM 42.4192 -83.2106 214° Southwest 195 224 4,900 -1,380 Descending Cleveland Center
12:43PM 42.3947 -83.2275 207° Southwest 197 227 4,300 -1,140 Descending Cleveland Center
12:43PM 42.3725 -83.2467 213° Southwest 193 222 3,800 -1,200 Descending Cleveland Center
12:44PM 42.3381 -83.2692 206° Southwest 193 222 3,100 -1,020 Descending Cleveland Center
12:44PM 42.3283 -83.2772 211° Southwest 188 216 2,900 -1,020 Descending Cleveland Center
12:45PM 42.2936 -83.3017 208° Southwest 187 215 2,100 -960 Descending Cleveland Center
12:45PM 42.2792 -83.3153 215° Southwest 137 158 1,800 -720 Descending Cleveland Center
12:46PM 42.2594 -83.3264 203° Southwest 153 176 1,400 -660 Descending Cleveland Center
12:46PM 42.2525 -83.3342 220° Southwest 136 157 1,300 -420 Descending Cleveland Center
12:47PM 42.2308 -83.3492 207° Southwest 143 165 1,000 -360 Descending Cleveland Center